Time;durP1;ratioP1;P1;durP2;ratioP2;P2;SDS_P1;SDS_P2;PMS_P1;PMS_P2;Temp;Humidity;BMP_temperature;BMP_pressure;BME280_temperature;BME280_humidity;BME280_pressure;Samples;Min_cycle;Max_cycle;Signal;HPM_P1;HPM_P2
2021/06/16 00:00:48;;;;;;;;;;;;;;;25.27;46.97;101423.44;2204297;39;114334;-54
2021/06/16 00:02:20;;;;;;;;;;;;;;;25.27;47.03;101416.97;2195445;39;113974;-54
2021/06/16 00:03:51;;;;;;;;;;;;;;;25.27;47.58;101408.47;2195392;39;115403;-54
2021/06/16 00:05:25;;;;;;;;;;;;;;;25.27;47.16;101414.13;2188945;39;115453;-54
2021/06/16 00:06:56;;;;;;;;;;;;;;;25.28;47.32;101415.81;2195674;39;114291;-54
2021/06/16 00:08:28;;;;;;;;;;;;;;;25.28;47.26;101412.97;2196328;39;115029;-54
2021/06/16 00:10:00;;;;;;;;;;;;;;;25.29;47.08;101412.66;2202846;39;115487;-54
2021/06/16 00:11:32;;;;;;;;;;;;;;;25.28;47.21;101407.31;2201404;39;114974;-54
2021/06/16 00:13:04;;;;;;;;;;;;;;;25.29;47.08;101406.16;2198268;39;115030;-54
2021/06/16 00:14:36;;;;;;;;;;;;;;;25.29;47.19;101407.00;2201576;39;115656;-54
2021/06/16 00:16:08;;;;;;;;;;;;;;;25.30;47.21;101408.66;2205382;39;115173;-54
2021/06/16 00:17:39;;;;;;;;;;;;;;;25.31;47.54;101401.81;2202874;39;114890;-54
2021/06/16 00:19:11;;;;;;;;;;;;;;;25.30;47.33;101408.66;2196525;39;115997;-54
2021/06/16 00:20:43;;;;;;;;;;;;;;;25.30;47.34;101405.84;2194175;39;115120;-54
2021/06/16 00:22:15;;;;;;;;;;;;;;;25.30;47.31;101397.34;2200711;39;114674;-54
2021/06/16 00:23:47;;;;;;;;;;;;;;;25.31;47.37;101401.00;2199486;39;115763;-54
2021/06/16 00:25:18;;;;;;;;;;;;;;;25.32;47.39;101397.84;2198164;39;115535;-54
2021/06/16 00:26:50;;;;;;;;;;;;;;;25.30;47.05;101394.53;2202396;39;114706;-55
2021/06/16 00:28:22;;;;;;;;;;;;;;;25.28;47.19;101394.00;2203873;39;114656;-54
2021/06/16 00:29:54;;;;;;;;;;;;;;;25.30;47.43;101393.69;2203284;39;115745;-54
2021/06/16 00:31:25;;;;;;;;;;;;;;;25.29;47.08;101394.84;2198055;39;114739;-55
2021/06/16 00:32:57;;;;;;;;;;;;;;;25.29;47.40;101392.00;2201513;39;115369;-54
2021/06/16 00:34:28;;;;;;;;;;;;;;;25.28;47.06;101388.34;2205047;39;115719;-54
2021/06/16 00:36:00;;;;;;;;;;;;;;;25.28;47.37;101391.19;2208246;39;114969;-54
2021/06/16 00:37:33;;;;;;;;;;;;;;;25.31;47.04;101396.16;2193488;39;115609;-54
2021/06/16 00:39:06;;;;;;;;;;;;;;;25.31;47.06;101390.50;2189797;39;114296;-54
2021/06/16 00:40:38;;;;;;;;;;;;;;;25.31;47.48;101392.50;2193133;39;114033;-54
2021/06/16 00:42:09;;;;;;;;;;;;;;;25.28;47.05;101393.16;2206667;39;113862;-54
2021/06/16 00:43:41;;;;;;;;;;;;;;;25.27;46.60;101385.84;2203572;39;113926;-54
2021/06/16 00:45:13;;;;;;;;;;;;;;;25.25;46.88;101389.03;2204915;39;113882;-54
2021/06/16 00:46:45;;;;;;;;;;;;;;;25.27;46.93;101385.84;2207575;39;113706;-54
2021/06/16 00:48:17;;;;;;;;;;;;;;;25.27;47.23;101378.19;2207626;39;114056;-54
2021/06/16 00:49:48;;;;;;;;;;;;;;;25.26;46.84;101381.38;2204138;39;113894;-54
2021/06/16 00:51:20;;;;;;;;;;;;;;;25.29;47.12;101383.53;2206277;39;113958;-54
2021/06/16 00:52:52;;;;;;;;;;;;;;;25.25;47.09;101374.88;2209530;39;113848;-54
2021/06/16 00:54:23;;;;;;;;;;;;;;;25.26;47.24;101376.53;2200236;39;114537;-54
2021/06/16 00:55:55;;;;;;;;;;;;;;;25.24;47.24;101371.22;2204448;39;113724;-54
2021/06/16 00:57:27;;;;;;;;;;;;;;;25.26;47.10;101379.34;2204924;39;113797;-54
2021/06/16 00:58:58;;;;;;;;;;;;;;;25.25;47.15;101377.72;2199204;39;113976;-54
2021/06/16 01:00:34;;;;;;;;;;;;;;;25.27;47.20;101385.84;2201911;39;113943;-55
2021/06/16 01:02:07;;;;;;;;;;;;;;;25.27;47.08;101377.34;2198044;39;113951;-54
2021/06/16 01:03:44;;;;;;;;;;;;;;;25.27;47.30;101389.50;2203094;39;114090;-54
2021/06/16 01:05:16;;;;;;;;;;;;;;;25.27;47.58;101383.00;2203985;39;115012;-54
2021/06/16 01:06:50;;;;;;;;;;;;;;;25.28;47.49;101379.03;2204532;39;114001;-54
2021/06/16 01:08:25;;;;;;;;;;;;;;;25.25;47.76;101374.88;2196682;39;114338;-54
2021/06/16 01:09:58;;;;;;;;;;;;;;;25.26;47.22;101370.84;2198496;39;114874;-54
2021/06/16 01:11:33;;;;;;;;;;;;;;;25.26;47.22;101370.84;2200236;39;114086;-54
2021/06/16 01:13:13;;;;;;;;;;;;;;;25.28;47.76;101373.38;2199533;39;115542;-54
2021/06/16 01:14:54;;;;;;;;;;;;;;;25.26;47.84;101370.84;2204787;39;114635;-54
2021/06/16 01:16:26;;;;;;;;;;;;;;;25.28;47.34;101365.72;2193009;39;115616;-54
2021/06/16 01:18:00;;;;;;;;;;;;;;;25.28;47.68;101356.41;2200856;39;114892;-54
2021/06/16 01:19:35;;;;;;;;;;;;;;;25.28;47.29;101359.22;2188732;39;114500;-54
2021/06/16 01:21:08;;;;;;;;;;;;;;;25.27;47.32;101355.56;2204802;39;115576;-54
2021/06/16 01:22:42;;;;;;;;;;;;;;;25.28;47.56;101353.56;2200814;39;114847;-54
2021/06/16 01:24:16;;;;;;;;;;;;;;;25.28;47.35;101347.91;2197742;39;114687;-55
2021/06/16 01:25:58;;;;;;;;;;;;;;;25.28;47.58;101351.56;2201038;39;115717;-54
2021/06/16 01:27:29;;;;;;;;;;;;;;;25.28;47.54;101353.56;2203204;39;115733;-54
2021/06/16 01:29:03;;;;;;;;;;;;;;;25.28;47.60;101347.91;2192368;39;115672;-54
2021/06/16 01:30:35;;;;;;;;;;;;;;;25.29;47.33;101353.25;2197936;39;114652;-54
2021/06/16 01:32:08;;;;;;;;;;;;;;;25.29;47.47;101349.59;2190180;39;115680;-55
2021/06/16 01:33:40;;;;;;;;;;;;;;;25.27;47.73;101340.59;2190511;39;115583;-54
2021/06/16 01:35:12;;;;;;;;;;;;;;;25.27;47.45;101343.41;2199238;39;115859;-54
2021/06/16 01:36:45;;;;;;;;;;;;;;;25.28;47.67;101339.44;2204994;39;115521;-54
2021/06/16 01:38:17;;;;;;;;;;;;;;;25.31;47.68;101338.75;2204863;39;115686;-54
2021/06/16 01:39:49;;;;;;;;;;;;;;;25.30;47.59;101337.13;2197469;39;114723;-54
2021/06/16 01:41:21;;;;;;;;;;;;;;;25.30;47.49;101342.78;2203083;39;115732;-55
2021/06/16 01:42:55;;;;;;;;;;;;;;;25.29;47.46;101338.28;2194220;39;115699;-54
2021/06/16 01:44:27;;;;;;;;;;;;;;;25.31;47.73;101333.09;2200485;39;115507;-54
2021/06/16 01:46:00;;;;;;;;;;;;;;;25.30;47.55;101328.63;2202220;39;114118;-54
2021/06/16 01:47:32;;;;;;;;;;;;;;;25.30;47.32;101329.47;2197765;39;113710;-54
2021/06/16 01:49:04;;;;;;;;;;;;;;;25.31;47.63;101328.28;2190275;39;114001;-54
2021/06/16 01:50:36;;;;;;;;;;;;;;;25.31;47.33;101321.78;2200297;39;114013;-54
2021/06/16 01:52:08;;;;;;;;;;;;;;;25.31;47.79;101328.28;2197919;39;113730;-54
2021/06/16 01:53:40;;;;;;;;;;;;;;;25.30;47.76;101320.97;2202811;39;113876;-54
2021/06/16 01:55:13;;;;;;;;;;;;;;;25.31;47.25;101325.44;2193498;39;114121;-54
2021/06/16 01:56:46;;;;;;;;;;;;;;;25.30;47.59;101320.13;2200412;39;113714;-54
2021/06/16 01:58:18;;;;;;;;;;;;;;;25.31;47.73;101328.28;2197875;39;113750;-55
2021/06/16 01:59:52;;;;;;;;;;;;;;;25.29;47.46;101330.63;2194625;39;113925;-54
2021/06/16 02:01:24;;;;;;;;;;;;;;;25.29;47.14;101318.47;2194354;39;114592;-54
2021/06/16 02:02:56;;;;;;;;;;;;;;;25.30;47.60;101320.97;2201334;39;114131;-54
2021/06/16 02:04:28;;;;;;;;;;;;;;;25.28;47.18;101317.63;2205241;39;113966;-54
2021/06/16 02:06:00;;;;;;;;;;;;;;;25.30;47.32;101314.47;2207275;39;113649;-54
2021/06/16 02:07:35;;;;;;;;;;;;;;;25.29;47.50;101309.97;2197459;39;114939;-54
2021/06/16 02:09:08;;;;;;;;;;;;;;;25.30;47.45;101314.47;2201935;39;114968;-54
2021/06/16 02:10:41;;;;;;;;;;;;;;;25.31;47.10;101316.13;2204136;39;115630;-54
2021/06/16 02:12:14;;;;;;;;;;;;;;;25.31;47.47;101308.47;2202187;39;115003;-54
2021/06/16 02:13:49;;;;;;;;;;;;;;;25.30;46.54;101309.66;2204168;39;113896;-54
2021/06/16 02:15:21;;;;;;;;;;;;;;;25.29;47.18;101307.16;2196447;39;114081;-54
2021/06/16 02:16:55;;;;;;;;;;;;;;;25.30;47.45;101314.47;2194055;39;114981;-54
2021/06/16 02:18:34;;;;;;;;;;;;;;;25.30;47.38;101304.00;2198400;39;115308;-54
2021/06/16 02:20:06;;;;;;;;;;;;;;;25.30;47.21;101309.66;2191622;39;116332;-54
2021/06/16 02:21:39;;;;;;;;;;;;;;;25.30;46.85;101298.34;2196687;39;114444;-54
2021/06/16 02:23:12;;;;;;;;;;;;;;;25.29;47.11;101298.66;2196604;39;114053;-54
2021/06/16 02:24:44;;;;;;;;;;;;;;;25.27;47.00;101289.66;2191754;39;116552;-54
2021/06/16 02:26:16;;;;;;;;;;;;;;;25.28;46.84;101285.69;2195236;39;114095;-54
2021/06/16 02:27:48;;;;;;;;;;;;;;;25.28;47.01;101282.84;2204464;39;114932;-54
2021/06/16 02:29:20;;;;;;;;;;;;;;;25.27;46.74;101279.19;2197356;39;115081;-54
2021/06/16 02:30:52;;;;;;;;;;;;;;;25.27;46.95;101269.88;2194860;39;114604;-54
2021/06/16 02:32:24;;;;;;;;;;;;;;;25.28;47.00;101274.38;2203850;39;115127;-54
2021/06/16 02:33:55;;;;;;;;;;;;;;;25.26;46.98;101265.41;2203730;39;115572;-54
2021/06/16 02:35:27;;;;;;;;;;;;;;;25.27;46.94;101261.38;2203334;39;116891;-54
2021/06/16 02:37:00;;;;;;;;;;;;;;;25.27;47.22;101261.38;2202024;39;115634;-54
2021/06/16 02:38:34;;;;;;;;;;;;;;;25.24;46.81;101263.72;2195229;39;115980;-54
2021/06/16 02:40:11;;;;;;;;;;;;;;;25.24;46.88;101258.06;2202733;39;115557;-54
2021/06/16 02:41:45;;;;;;;;;;;;;;;25.27;46.95;101264.22;2197440;39;114866;-54
2021/06/16 02:43:17;;;;;;;;;;;;;;;25.26;46.45;101265.41;2198486;39;115579;-54
2021/06/16 02:44:50;;;;;;;;;;;;;;;25.27;46.38;101258.56;2198026;39;115585;-54
2021/06/16 02:46:22;;;;;;;;;;;;;;;25.25;46.51;101253.25;2194083;39;115133;-54
2021/06/16 02:47:54;;;;;;;;;;;;;;;25.24;46.66;101246.75;2204866;39;115838;-56
2021/06/16 02:49:31;;;;;;;;;;;;;;;25.22;46.95;101243.41;2206351;39;115686;-54
2021/06/16 02:51:03;;;;;;;;;;;;;;;25.23;46.75;101238.59;2200487;39;113824;-54
2021/06/16 02:52:36;;;;;;;;;;;;;;;25.23;46.81;101233.78;2202075;39;113883;-54
2021/06/16 02:54:11;;;;;;;;;;;;;;;25.23;46.87;101230.94;2195679;39;113861;-54
2021/06/16 02:55:44;;;;;;;;;;;;;;;25.24;46.57;101231.78;2204026;39;113820;-55
2021/06/16 02:57:18;;;;;;;;;;;;;;;25.24;46.55;101226.97;2196609;39;113842;-54
2021/06/16 02:58:51;;;;;;;;;;;;;;;25.23;47.04;101228.13;2201775;39;114090;-54
2021/06/16 03:00:23;;;;;;;;;;;;;;;25.23;46.66;101230.94;2191724;39;114336;-54
2021/06/16 03:01:54;;;;;;;;;;;;;;;25.23;46.75;101232.94;2194084;39;113617;-54
2021/06/16 03:03:27;;;;;;;;;;;;;;;25.23;46.59;101230.13;2202209;39;113728;-54
2021/06/16 03:04:59;;;;;;;;;;;;;;;25.22;46.46;101229.28;2195457;39;114070;-54
2021/06/16 03:06:31;;;;;;;;;;;;;;;25.22;46.82;101222.78;2196355;39;113717;-54
2021/06/16 03:08:04;;;;;;;;;;;;;;;25.21;46.83;101221.16;2197203;39;114243;-54
2021/06/16 03:09:37;;;;;;;;;;;;;;;25.19;46.43;101224.31;2194947;39;113889;-54
2021/06/16 03:11:09;;;;;;;;;;;;;;;25.19;47.27;101221.47;2194962;39;115599;-55
2021/06/16 03:12:41;;;;;;;;;;;;;;;25.21;46.81;101224.78;2201721;39;113984;-54
2021/06/16 03:14:13;;;;;;;;;;;;;;;25.20;47.51;101223.13;2194414;39;114911;-54
2021/06/16 03:15:46;;;;;;;;;;;;;;;25.22;47.08;101222.78;2200189;39;114031;-54
2021/06/16 03:17:19;;;;;;;;;;;;;;;25.20;47.18;101214.66;2201489;39;113922;-54
2021/06/16 03:18:50;;;;;;;;;;;;;;;25.22;47.16;101214.31;2199021;39;114642;-54
2021/06/16 03:20:24;;;;;;;;;;;;;;;25.23;47.53;101207.50;2197883;39;115113;-54
2021/06/16 03:21:57;;;;;;;;;;;;;;;25.23;47.35;101213.97;2196480;39;115304;-56
2021/06/16 03:23:29;;;;;;;;;;;;;;;25.21;47.35;101212.66;2201981;39;115941;-54
2021/06/16 03:25:01;;;;;;;;;;;;;;;25.22;47.63;101215.13;2200546;39;113957;-55
2021/06/16 03:26:33;;;;;;;;;;;;;;;25.22;47.47;101211.47;2199877;39;114017;-54
2021/06/16 03:28:05;;;;;;;;;;;;;;;25.22;47.23;101217.97;2203766;39;114382;-54
2021/06/16 03:29:38;;;;;;;;;;;;;;;25.23;47.46;101213.97;2204044;39;115296;-55
2021/06/16 03:31:11;;;;;;;;;;;;;;;25.23;47.53;101216.81;2191008;39;115017;-54
2021/06/16 03:32:43;;;;;;;;;;;;;;;25.24;47.60;101220.47;2200536;39;114434;-54
2021/06/16 03:34:15;;;;;;;;;;;;;;;25.23;47.25;101219.63;2206658;39;114148;-54
2021/06/16 03:35:47;;;;;;;;;;;;;;;25.22;47.80;101208.66;2203646;39;115926;-54
2021/06/16 03:37:18;;;;;;;;;;;;;;;25.21;47.67;101213.47;2196032;39;114672;-54
2021/06/16 03:38:50;;;;;;;;;;;;;;;25.22;47.19;101212.31;2200138;39;114743;-55
2021/06/16 03:40:26;;;;;;;;;;;;;;;25.23;47.22;101204.66;2201810;39;115629;-54
2021/06/16 03:41:58;;;;;;;;;;;;;;;25.21;47.36;101213.47;2194666;39;115853;-54
2021/06/16 03:43:29;;;;;;;;;;;;;;;25.23;47.58;101207.50;2192267;39;115738;-54
2021/06/16 03:45:03;;;;;;;;;;;;;;;25.22;48.00;101208.66;2195617;39;115841;-54
2021/06/16 03:46:36;;;;;;;;;;;;;;;25.21;47.27;101201.34;2193860;39;115966;-54
2021/06/16 03:48:10;;;;;;;;;;;;;;;25.22;47.39;101194.50;2195349;39;115702;-54
2021/06/16 03:49:43;;;;;;;;;;;;;;;25.23;47.40;101196.19;2201095;39;116147;-54
2021/06/16 03:51:15;;;;;;;;;;;;;;;25.21;47.66;101198.53;2203525;39;114674;-54
2021/06/16 03:52:46;;;;;;;;;;;;;;;25.20;46.93;101191.19;2204237;39;115604;-54
2021/06/16 03:54:18;;;;;;;;;;;;;;;25.19;47.16;101190.38;2195237;39;115589;-54
2021/06/16 03:55:51;;;;;;;;;;;;;;;25.21;47.11;101192.88;2203606;39;114887;-54
2021/06/16 03:57:22;;;;;;;;;;;;;;;25.19;47.26;101184.72;2204175;39;113779;-54
2021/06/16 03:58:54;;;;;;;;;;;;;;;25.20;46.97;101186.38;2203198;39;113929;-54
2021/06/16 04:00:26;;;;;;;;;;;;;;;25.19;47.17;101187.53;2199510;39;113808;-54
2021/06/16 04:01:57;;;;;;;;;;;;;;;25.19;46.74;101179.06;2200539;39;114001;-54
2021/06/16 04:03:29;;;;;;;;;;;;;;;25.19;47.21;101176.22;2203542;39;114185;-54
2021/06/16 04:05:05;;;;;;;;;;;;;;;25.18;47.35;101183.03;2201388;39;113823;-54
2021/06/16 04:06:42;;;;;;;;;;;;;;;25.17;46.57;101172.88;2195700;39;113689;-54
2021/06/16 04:08:14;;;;;;;;;;;;;;;25.17;46.41;101178.53;2188681;39;115430;-54
2021/06/16 04:09:48;;;;;;;;;;;;;;;25.18;46.57;101182.19;2200031;39;113918;-54
2021/06/16 04:11:19;;;;;;;;;;;;;;;25.17;46.34;101178.53;2203094;39;113921;-54
2021/06/16 04:12:51;;;;;;;;;;;;;;;25.16;46.51;101168.41;2199682;39;114575;-54
2021/06/16 04:14:23;;;;;;;;;;;;;;;25.16;46.40;101168.41;2195844;39;113725;-54
2021/06/16 04:15:54;;;;;;;;;;;;;;;25.17;46.69;101170.06;2195582;39;113897;-54
2021/06/16 04:17:26;;;;;;;;;;;;;;;25.17;46.56;101163.56;2199418;39;115624;-53
2021/06/16 04:18:58;;;;;;;;;;;;;;;25.16;46.97;101174.06;2204113;39;116029;-54
2021/06/16 04:20:30;;;;;;;;;;;;;;;25.18;46.37;101165.22;2198837;39;114983;-55
2021/06/16 04:22:01;;;;;;;;;;;;;;;25.16;46.48;101165.59;2192995;39;115254;-54
2021/06/16 04:23:33;;;;;;;;;;;;;;;25.15;46.23;101155.44;2202674;39;114165;-54
2021/06/16 04:25:05;;;;;;;;;;;;;;;25.16;46.33;101157.09;2198538;39;115187;-54
2021/06/16 04:26:37;;;;;;;;;;;;;;;25.16;46.07;101161.94;2195622;39;114885;-54
2021/06/16 04:28:08;;;;;;;;;;;;;;;25.16;46.37;101153.44;2202511;39;115366;-54
2021/06/16 04:29:41;;;;;;;;;;;;;;;25.15;46.35;101151.78;2194757;39;115501;-54
2021/06/16 04:31:12;;;;;;;;;;;;;;;25.13;46.11;101146.44;2199930;39;114980;-54
2021/06/16 04:32:44;;;;;;;;;;;;;;;25.14;46.70;101139.63;2198005;39;114984;-54
2021/06/16 04:34:16;;;;;;;;;;;;;;;25.15;46.17;101138.47;2202036;39;115049;-55
2021/06/16 04:35:47;;;;;;;;;;;;;;;25.12;46.38;101144.78;2199375;39;114968;-54
2021/06/16 04:37:19;;;;;;;;;;;;;;;25.12;46.01;101133.47;2193731;39;115139;-54
2021/06/16 04:38:50;;;;;;;;;;;;;;;25.13;46.25;101129.47;2200930;39;114385;-54
2021/06/16 04:40:22;;;;;;;;;;;;;;;25.12;46.02;101119.31;2200821;39;116279;-54
2021/06/16 04:41:53;;;;;;;;;;;;;;;25.12;46.34;101121.34;2200241;39;115659;-54
2021/06/16 04:43:25;;;;;;;;;;;;;;;25.11;46.30;101122.50;2204877;39;114689;-54
2021/06/16 04:44:56;;;;;;;;;;;;;;;25.11;46.17;101126.16;2205240;39;116006;-54
2021/06/16 04:46:28;;;;;;;;;;;;;;;25.10;46.52;101126.50;2189096;39;115717;-54
2021/06/16 04:48:00;;;;;;;;;;;;;;;25.10;45.98;101129.31;2196283;39;115561;-55
2021/06/16 04:49:32;;;;;;;;;;;;;;;25.09;46.22;101128.50;2201909;39;115580;-54
2021/06/16 04:51:03;;;;;;;;;;;;;;;25.09;45.92;101124.81;2203198;39;116154;-54
2021/06/16 04:52:35;;;;;;;;;;;;;;;25.10;46.33;101129.31;2195228;39;114661;-54
2021/06/16 04:54:10;;;;;;;;;;;;;;;25.09;45.85;101124.81;2198411;39;115508;-54
2021/06/16 04:55:43;;;;;;;;;;;;;;;25.07;45.92;101130.84;2202569;39;115945;-55
2021/06/16 04:57:15;;;;;;;;;;;;;;;25.07;46.18;101124.34;2204103;39;115686;-54
2021/06/16 04:58:47;;;;;;;;;;;;;;;25.08;46.07;101129.66;2202468;39;114643;-54
2021/06/16 05:00:22;;;;;;;;;;;;;;;25.06;45.83;101128.34;2203787;39;115962;-54
2021/06/16 05:01:53;;;;;;;;;;;;;;;25.07;45.86;101139.31;2202304;39;114757;-54
2021/06/16 05:03:25;;;;;;;;;;;;;;;25.06;45.78;101134.81;2199749;39;113752;-55
2021/06/16 05:04:56;;;;;;;;;;;;;;;25.07;46.00;101138.47;2190387;39;113713;-54
2021/06/16 05:06:28;;;;;;;;;;;;;;;25.06;45.86;101148.13;2193783;39;113928;-54
2021/06/16 05:07:59;;;;;;;;;;;;;;;25.06;46.14;101145.28;2193467;39;113808;-54
2021/06/16 05:09:31;;;;;;;;;;;;;;;25.05;46.07;101138.81;2199201;39;114140;-54
2021/06/16 05:11:03;;;;;;;;;;;;;;;25.06;46.01;101142.47;2200777;39;113768;-54
2021/06/16 05:12:34;;;;;;;;;;;;;;;25.06;45.69;101140.47;2186642;39;113863;-54
2021/06/16 05:14:06;;;;;;;;;;;;;;;25.05;45.66;101138.81;2201231;39;113805;-54
2021/06/16 05:15:37;;;;;;;;;;;;;;;25.05;45.92;101135.16;2199295;39;113581;-55
2021/06/16 05:17:10;;;;;;;;;;;;;;;25.06;45.83;101134.81;2191555;39;114421;-54
2021/06/16 05:18:44;;;;;;;;;;;;;;;25.05;46.24;101126.66;2198184;39;113829;-54
2021/06/16 05:20:15;;;;;;;;;;;;;;;25.05;46.10;101135.97;2188581;39;114028;-54
2021/06/16 05:21:47;;;;;;;;;;;;;;;25.05;46.38;101130.31;2194078;39;113886;-56
2021/06/16 05:23:19;;;;;;;;;;;;;;;25.04;46.34;101131.47;2196269;39;113837;-54
2021/06/16 05:24:50;;;;;;;;;;;;;;;25.04;46.48;101125.00;2201143;39;116808;-54
2021/06/16 05:26:22;;;;;;;;;;;;;;;25.03;46.15;101115.69;2198282;39;115906;-54
2021/06/16 05:27:53;;;;;;;;;;;;;;;25.04;46.27;101117.34;2203032;39;117394;-54
2021/06/16 05:29:25;;;;;;;;;;;;;;;25.06;46.06;101115.03;2205399;39;114937;-55
2021/06/16 05:30:57;;;;;;;;;;;;;;;25.04;46.09;101114.53;2197151;39;114797;-54
2021/06/16 05:32:28;;;;;;;;;;;;;;;25.04;46.07;101108.88;2196880;39;114404;-54
2021/06/16 05:34:00;;;;;;;;;;;;;;;25.04;46.03;101106.03;2205095;39;114046;-54
2021/06/16 05:35:32;;;;;;;;;;;;;;;25.03;46.13;101107.19;2198042;39;115333;-54
2021/06/16 05:37:06;;;;;;;;;;;;;;;25.04;45.77;101110.84;2193378;39;115220;-54
2021/06/16 05:38:38;;;;;;;;;;;;;;;25.02;46.03;101108.38;2194775;39;114414;-55
2021/06/16 05:40:09;;;;;;;;;;;;;;;25.02;46.25;101110.38;2202702;39;114970;-55
2021/06/16 05:41:41;;;;;;;;;;;;;;;25.01;45.95;101108.72;2203157;39;114402;-54
2021/06/16 05:43:13;;;;;;;;;;;;;;;25.03;46.35;101110.03;2202932;39;114833;-57
2021/06/16 05:44:45;;;;;;;;;;;;;;;25.02;46.00;101104.72;2205852;39;114904;-54
2021/06/16 05:46:16;;;;;;;;;;;;;;;25.02;46.18;101105.56;2204980;39;115005;-54
2021/06/16 05:47:48;;;;;;;;;;;;;;;25.02;45.71;101107.56;2201307;39;114651;-54
2021/06/16 05:49:19;;;;;;;;;;;;;;;25.04;46.00;101108.88;2205107;39;114286;-54
2021/06/16 05:50:51;;;;;;;;;;;;;;;25.01;46.13;101103.91;2196742;39;114825;-54
2021/06/16 05:52:22;;;;;;;;;;;;;;;25.02;45.60;101114.03;2203303;39;115743;-54
2021/06/16 05:53:54;;;;;;;;;;;;;;;25.01;45.67;101109.53;2207213;39;114694;-54
2021/06/16 05:55:25;;;;;;;;;;;;;;;25.01;46.03;101109.53;2204766;39;115670;-54
2021/06/16 05:56:58;;;;;;;;;;;;;;;25.01;45.69;101106.72;2204361;39;115885;-54
2021/06/16 05:58:30;;;;;;;;;;;;;;;25.02;45.96;101116.03;2196482;39;115150;-54
2021/06/16 06:00:03;;;;;;;;;;;;;;;25.01;46.11;101105.88;2197363;39;115634;-54
2021/06/16 06:01:35;;;;;;;;;;;;;;;25.01;46.29;101108.72;2192370;39;116160;-54
2021/06/16 06:03:07;;;;;;;;;;;;;;;25.00;46.20;101096.56;2198194;39;114744;-54
2021/06/16 06:04:39;;;;;;;;;;;;;;;25.00;46.09;101093.75;2196774;39;115836;-54
2021/06/16 06:06:11;;;;;;;;;;;;;;;25.00;46.25;101105.06;2200831;39;115696;-54
2021/06/16 06:07:42;;;;;;;;;;;;;;;25.00;46.44;101105.06;2196948;39;114037;-54
2021/06/16 06:09:14;;;;;;;;;;;;;;;25.00;45.74;101102.22;2199073;39;114506;-54
2021/06/16 06:10:46;;;;;;;;;;;;;;;24.99;45.82;101089.25;2202211;39;113789;-54
2021/06/16 06:12:17;;;;;;;;;;;;;;;24.98;45.51;101089.59;2202693;39;114031;-54
2021/06/16 06:13:49;;;;;;;;;;;;;;;24.96;46.00;101089.94;2194422;39;113830;-54
2021/06/16 06:15:21;;;;;;;;;;;;;;;24.96;45.94;101087.09;2201352;39;114977;-54
2021/06/16 06:16:53;;;;;;;;;;;;;;;24.96;45.93;101092.75;2204180;39;113706;-54
2021/06/16 06:18:24;;;;;;;;;;;;;;;24.96;45.76;101092.75;2199657;39;113690;-54
2021/06/16 06:19:56;;;;;;;;;;;;;;;24.96;46.26;101095.59;2205988;39;113642;-55
2021/06/16 06:21:31;;;;;;;;;;;;;;;24.97;46.04;101090.75;2204077;39;113699;-54
2021/06/16 06:23:03;;;;;;;;;;;;;;;24.95;46.37;101088.25;2208538;39;113740;-54
2021/06/16 06:24:34;;;;;;;;;;;;;;;24.95;45.94;101090.25;2203476;39;113998;-54
2021/06/16 06:26:06;;;;;;;;;;;;;;;24.96;45.77;101078.63;2204350;39;114141;-54
2021/06/16 06:27:38;;;;;;;;;;;;;;;24.96;46.02;101074.97;2191986;39;116077;-54
2021/06/16 06:29:10;;;;;;;;;;;;;;;24.96;46.07;101078.63;2198593;39;113797;-54
2021/06/16 06:30:42;;;;;;;;;;;;;;;24.95;45.90;101087.44;2198652;39;114532;-54
2021/06/16 06:32:13;;;;;;;;;;;;;;;24.96;46.04;101086.28;2202784;39;113874;-54
2021/06/16 06:33:45;;;;;;;;;;;;;;;24.96;45.72;101086.28;2198011;39;113736;-54
2021/06/16 06:35:16;;;;;;;;;;;;;;;24.95;45.98;101088.25;2198890;39;114893;-54
2021/06/16 06:36:48;;;;;;;;;;;;;;;24.93;45.64;101084.94;2199565;39;114069;-54
2021/06/16 06:38:19;;;;;;;;;;;;;;;24.94;45.79;101086.59;2202746;39;115558;-54
2021/06/16 06:39:51;;;;;;;;;;;;;;;24.94;46.08;101085.78;2202832;39;114871;-54
2021/06/16 06:41:23;;;;;;;;;;;;;;;24.94;45.91;101091.44;2201791;39;114926;-54
2021/06/16 06:42:54;;;;;;;;;;;;;;;24.93;46.03;101084.13;2203058;39;113934;-54
2021/06/16 06:44:26;;;;;;;;;;;;;;;24.93;45.99;101082.13;2203061;39;114805;-54
2021/06/16 06:45:57;;;;;;;;;;;;;;;24.92;46.29;101083.28;2204558;39;115158;-54
2021/06/16 06:47:29;;;;;;;;;;;;;;;24.94;45.99;101080.94;2197296;39;114206;-54
2021/06/16 06:49:00;;;;;;;;;;;;;;;24.94;46.57;101080.94;2193944;39;114770;-54
2021/06/16 06:50:32;;;;;;;;;;;;;;;24.96;46.96;101080.63;2205232;39;115552;-54
2021/06/16 06:52:04;;;;;;;;;;;;;;;24.96;46.62;101077.78;2200442;39;116329;-54
2021/06/16 06:53:35;;;;;;;;;;;;;;;24.97;46.68;101082.28;2204180;39;114711;-54
2021/06/16 06:55:08;;;;;;;;;;;;;;;24.95;46.85;101082.59;2195289;39;115647;-54
2021/06/16 06:56:40;;;;;;;;;;;;;;;24.98;46.25;101087.59;2189393;39;115871;-54
2021/06/16 06:58:11;;;;;;;;;;;;;;;24.96;46.61;101086.28;2197040;39;116114;-54
2021/06/16 06:59:43;;;;;;;;;;;;;;;24.84;45.44;101086.09;2203117;39;116263;-54
2021/06/16 07:01:14;;;;;;;;;;;;;;;24.74;45.11;101076.78;2199913;39;115019;-54
2021/06/16 07:02:47;;;;;;;;;;;;;;;24.67;45.01;101076.47;2194601;39;115579;-54
2021/06/16 07:04:18;;;;;;;;;;;;;;;24.62;44.68;101079.44;2191894;39;116037;-54
2021/06/16 07:05:50;;;;;;;;;;;;;;;24.58;44.86;101075.63;2202426;39;116299;-54
2021/06/16 07:07:23;;;;;;;;;;;;;;;24.53;44.99;101072.16;2207723;39;115555;-54
2021/06/16 07:08:55;;;;;;;;;;;;;;;24.54;44.92;101073.81;2209186;39;114770;-55
2021/06/16 07:10:27;;;;;;;;;;;;;;;24.47;44.85;101076.31;2200350;39;115798;-54
2021/06/16 07:11:59;;;;;;;;;;;;;;;24.38;44.99;101067.84;2205854;39;116186;-54
2021/06/16 07:13:30;;;;;;;;;;;;;;;24.34;45.03;101073.31;2206710;39;114112;-54
2021/06/16 07:15:11;;;;;;;;;;;;;;;24.31;44.83;101078.78;2202541;39;114029;-54
2021/06/16 07:16:43;;;;;;;;;;;;;;;24.32;45.05;101086.94;2197324;39;113653;-54
2021/06/16 07:18:15;;;;;;;;;;;;;;;24.24;44.88;101084.09;2191114;39;113979;-54
2021/06/16 07:19:46;;;;;;;;;;;;;;;24.23;44.84;101080.44;2196462;39;113767;-54
2021/06/16 07:21:18;;;;;;;;;;;;;;;24.17;44.99;101075.28;2191572;39;113805;-54
2021/06/16 07:22:50;;;;;;;;;;;;;;;24.15;45.09;101069.09;2189139;39;113760;-54
2021/06/16 07:24:21;;;;;;;;;;;;;;;24.16;45.19;101076.47;2189528;39;114221;-54
2021/06/16 07:25:53;;;;;;;;;;;;;;;24.14;45.09;101078.72;2187430;39;114035;-54
2021/06/16 07:27:25;;;;;;;;;;;;;;;24.11;45.26;101080.25;2193993;39;114055;-54
2021/06/16 07:28:57;;;;;;;;;;;;;;;24.10;45.32;101072.09;2190793;39;113842;-54
2021/06/16 07:30:28;;;;;;;;;;;;;;;24.09;45.51;101076.06;2192803;39;113922;-54
2021/06/16 07:32:00;;;;;;;;;;;;;;;24.07;45.32;101093.34;2192771;39;114418;-54
2021/06/16 07:33:34;;;;;;;;;;;;;;;24.01;45.50;101082.53;2191654;39;114157;-54
2021/06/16 07:35:06;;;;;;;;;;;;;;;24.03;45.33;101089.50;2194071;39;113958;-55
2021/06/16 07:36:38;;;;;;;;;;;;;;;23.97;45.02;101085.19;2194270;39;115144;-54
2021/06/16 07:38:09;;;;;;;;;;;;;;;23.99;45.29;101077.22;2192980;39;114783;-54
2021/06/16 07:39:41;;;;;;;;;;;;;;;23.99;45.20;101073.56;2186880;39;115056;-54
2021/06/16 07:41:13;;;;;;;;;;;;;;;23.97;45.41;101075.88;2193791;39;114339;-54
2021/06/16 07:42:45;;;;;;;;;;;;;;;23.97;45.54;101068.25;2194354;39;113910;-54
2021/06/16 07:44:17;;;;;;;;;;;;;;;24.00;45.31;101069.56;2185247;39;114903;-54
2021/06/16 07:45:49;;;;;;;;;;;;;;;23.97;45.42;101076.72;2193115;39;114355;-54
2021/06/16 07:47:21;;;;;;;;;;;;;;;24.03;45.41;101080.22;2195162;39;113911;-55
2021/06/16 07:48:53;;;;;;;;;;;;;;;24.00;45.39;101078.88;2185617;39;114915;-54